Portada
METAR-TAF:

METAR-TAF

Aeropuertos :

Cognac, Francia

latitud: 45-40N, longitud: 000-19W, altitud: 30 m

Observación

El informe se hizo hace 20 minutos, a las 11:00 UTC
Viento 12 kt del sur
Temperatura 17°C
Humedad 52%
Presión 1012 hPa
Visibilidad 10 km o más
sin nubes por debajo de 1500 m y sin presencia de cumulonimbus.

METAR: LFBG 231100Z AUTO 19012KT CAVOK 17/07 Q1012 NOSIG

Hora: 12:20 (11:20 UTC)

Pronóstico

El informe se hizo hace 3 horas y 20 minutos, a las 08:00 UTC
Pronóstico válido del 23 a las 09 UTC al 24 a las 09 UTC
Viento 12 kt del sur
Visibilidad 10 km o más
sin nubes por debajo de 1500 m y sin presencia de cumulonimbus.
Evolucionando progresivamente
del 24 a las 07 UTC al 24 a las 09 UTC
Cielo nuboso a una altura de 500 ft

TAF: LFBG 230800Z 2309/2409 18012KT CAVOK BECMG 2407/2409 BKN005

Observaciones y pronósticos meteorológicos de más de 4000 aeropuertos (mensajes METAR y TAF).

Los puntos amarillos y rojos representan las estaciones disponibles.

Ponga el ratón en el punto deseado para ver el nombre de la estación.

Haga clic para ver las observaciones y los pronósticos meteorológicos.

Para cambiar el mapa : haga clic en los botones verdes con una cruz de color negro para hacer un zoom, en el botón verde con un guión para alejar o en las flechas verdes para mapas adyacentes.


METAR-TAF: